sensor_id;sensor_type;location;lat;lon;timestamp;P1;durP1;ratioP1;P2;durP2;ratioP2
24559;SDS011;12727;49.934;8.656;2023-01-30T00:01:31;29.50;;;15.13;;
24559;SDS011;12727;49.934;8.656;2023-01-30T00:03:57;28.08;;;15.68;;
24559;SDS011;12727;49.934;8.656;2023-01-30T00:06:23;30.70;;;16.10;;
24559;SDS011;12727;49.934;8.656;2023-01-30T00:08:49;31.92;;;16.63;;
24559;SDS011;12727;49.934;8.656;2023-01-30T00:11:16;30.15;;;15.52;;
24559;SDS011;12727;49.934;8.656;2023-01-30T00:13:49;29.17;;;15.10;;
24559;SDS011;12727;49.934;8.656;2023-01-30T00:16:15;29.48;;;15.20;;
24559;SDS011;12727;49.934;8.656;2023-01-30T00:18:41;28.75;;;15.60;;
24559;SDS011;12727;49.934;8.656;2023-01-30T00:21:09;27.15;;;14.80;;
24559;SDS011;12727;49.934;8.656;2023-01-30T00:23:37;30.98;;;17.13;;
24559;SDS011;12727;49.934;8.656;2023-01-30T00:26:04;27.60;;;15.25;;
24559;SDS011;12727;49.934;8.656;2023-01-30T00:28:31;29.15;;;16.42;;
24559;SDS011;12727;49.934;8.656;2023-01-30T00:30:57;30.70;;;16.77;;
24559;SDS011;12727;49.934;8.656;2023-01-30T00:33:23;31.20;;;16.92;;
24559;SDS011;12727;49.934;8.656;2023-01-30T00:35:50;31.40;;;17.35;;
24559;SDS011;12727;49.934;8.656;2023-01-30T00:38:16;30.75;;;17.33;;
24559;SDS011;12727;49.934;8.656;2023-01-30T00:40:42;28.30;;;15.63;;
24559;SDS011;12727;49.934;8.656;2023-01-30T00:43:12;28.42;;;14.32;;
24559;SDS011;12727;49.934;8.656;2023-01-30T00:45:57;27.10;;;14.90;;
24559;SDS011;12727;49.934;8.656;2023-01-30T00:48:43;30.17;;;14.80;;
24559;SDS011;12727;49.934;8.656;2023-01-30T00:51:08;27.77;;;15.15;;
24559;SDS011;12727;49.934;8.656;2023-01-30T00:53:34;26.77;;;15.70;;
24559;SDS011;12727;49.934;8.656;2023-01-30T00:56:00;25.98;;;15.02;;
24559;SDS011;12727;49.934;8.656;2023-01-30T00:58:25;26.05;;;12.40;;
24559;SDS011;12727;49.934;8.656;2023-01-30T01:00:51;24.90;;;12.13;;
24559;SDS011;12727;49.934;8.656;2023-01-30T01:03:17;26.58;;;14.80;;
24559;SDS011;12727;49.934;8.656;2023-01-30T01:05:43;27.00;;;12.98;;
24559;SDS011;12727;49.934;8.656;2023-01-30T01:08:09;27.25;;;13.43;;
24559;SDS011;12727;49.934;8.656;2023-01-30T01:10:35;27.85;;;14.10;;
24559;SDS011;12727;49.934;8.656;2023-01-30T01:13:02;30.70;;;15.10;;
24559;SDS011;12727;49.934;8.656;2023-01-30T01:15:28;30.17;;;13.43;;
24559;SDS011;12727;49.934;8.656;2023-01-30T01:17:55;30.88;;;14.63;;
24559;SDS011;12727;49.934;8.656;2023-01-30T01:20:21;24.52;;;12.32;;
24559;SDS011;12727;49.934;8.656;2023-01-30T01:22:47;27.73;;;13.48;;
24559;SDS011;12727;49.934;8.656;2023-01-30T01:25:16;27.30;;;13.68;;
24559;SDS011;12727;49.934;8.656;2023-01-30T01:27:43;28.73;;;16.10;;
24559;SDS011;12727;49.934;8.656;2023-01-30T01:30:09;26.75;;;15.02;;
24559;SDS011;12727;49.934;8.656;2023-01-30T01:32:36;22.35;;;11.63;;
24559;SDS011;12727;49.934;8.656;2023-01-30T01:35:01;26.08;;;13.98;;
24559;SDS011;12727;49.934;8.656;2023-01-30T01:37:27;25.52;;;12.07;;
24559;SDS011;12727;49.934;8.656;2023-01-30T01:39:52;29.27;;;16.25;;
24559;SDS011;12727;49.934;8.656;2023-01-30T01:42:37;27.23;;;14.43;;
24559;SDS011;12727;49.934;8.656;2023-01-30T01:47:39;25.20;;;13.18;;
24559;SDS011;12727;49.934;8.656;2023-01-30T01:50:43;28.35;;;13.60;;
24559;SDS011;12727;49.934;8.656;2023-01-30T01:53:10;25.35;;;11.60;;
24559;SDS011;12727;49.934;8.656;2023-01-30T01:55:40;24.58;;;12.02;;
24559;SDS011;12727;49.934;8.656;2023-01-30T01:58:08;27.65;;;16.23;;
24559;SDS011;12727;49.934;8.656;2023-01-30T02:00:38;24.02;;;11.82;;
24559;SDS011;12727;49.934;8.656;2023-01-30T02:03:04;24.83;;;11.95;;
24559;SDS011;12727;49.934;8.656;2023-01-30T02:05:36;27.60;;;14.80;;
24559;SDS011;12727;49.934;8.656;2023-01-30T02:08:13;22.50;;;11.23;;
24559;SDS011;12727;49.934;8.656;2023-01-30T02:13:14;28.40;;;15.88;;
24559;SDS011;12727;49.934;8.656;2023-01-30T02:15:40;28.30;;;14.30;;
24559;SDS011;12727;49.934;8.656;2023-01-30T02:18:06;27.80;;;15.10;;
24559;SDS011;12727;49.934;8.656;2023-01-30T02:23:40;28.48;;;13.85;;
24559;SDS011;12727;49.934;8.656;2023-01-30T02:34:56;27.80;;;14.50;;
24559;SDS011;12727;49.934;8.656;2023-01-30T02:37:53;27.98;;;14.38;;
24559;SDS011;12727;49.934;8.656;2023-01-30T02:48:28;23.02;;;12.30;;
24559;SDS011;12727;49.934;8.656;2023-01-30T02:51:07;27.15;;;14.63;;
24559;SDS011;12727;49.934;8.656;2023-01-30T02:53:37;27.75;;;12.07;;
24559;SDS011;12727;49.934;8.656;2023-01-30T02:56:03;25.33;;;12.77;;
24559;SDS011;12727;49.934;8.656;2023-01-30T02:58:30;25.92;;;12.52;;
24559;SDS011;12727;49.934;8.656;2023-01-30T03:14:25;27.67;;;13.73;;
24559;SDS011;12727;49.934;8.656;2023-01-30T03:16:55;28.02;;;13.82;;
24559;SDS011;12727;49.934;8.656;2023-01-30T03:19:22;25.95;;;13.13;;
24559;SDS011;12727;49.934;8.656;2023-01-30T03:21:48;25.40;;;13.98;;
24559;SDS011;12727;49.934;8.656;2023-01-30T03:24:14;26.13;;;14.05;;
24559;SDS011;12727;49.934;8.656;2023-01-30T03:26:48;23.98;;;11.85;;
24559;SDS011;12727;49.934;8.656;2023-01-30T03:29:26;25.83;;;13.98;;
24559;SDS011;12727;49.934;8.656;2023-01-30T03:31:52;22.10;;;11.57;;
24559;SDS011;12727;49.934;8.656;2023-01-30T03:34:17;18.45;;;8.55;;
24559;SDS011;12727;49.934;8.656;2023-01-30T03:36:43;23.25;;;11.73;;
24559;SDS011;12727;49.934;8.656;2023-01-30T03:39:08;24.05;;;13.50;;
24559;SDS011;12727;49.934;8.656;2023-01-30T03:41:34;24.10;;;13.43;;
24559;SDS011;12727;49.934;8.656;2023-01-30T03:44:00;17.95;;;8.52;;
24559;SDS011;12727;49.934;8.656;2023-01-30T03:46:25;24.45;;;12.90;;
24559;SDS011;12727;49.934;8.656;2023-01-30T03:48:51;24.02;;;11.55;;
24559;SDS011;12727;49.934;8.656;2023-01-30T03:51:16;23.48;;;13.48;;
24559;SDS011;12727;49.934;8.656;2023-01-30T03:53:42;24.90;;;11.70;;
24559;SDS011;12727;49.934;8.656;2023-01-30T03:56:07;23.60;;;12.13;;
24559;SDS011;12727;49.934;8.656;2023-01-30T03:58:33;23.60;;;12.13;;
24559;SDS011;12727;49.934;8.656;2023-01-30T04:00:58;25.73;;;14.20;;
24559;SDS011;12727;49.934;8.656;2023-01-30T04:03:24;22.23;;;11.23;;
24559;SDS011;12727;49.934;8.656;2023-01-30T04:05:49;23.92;;;12.77;;
24559;SDS011;12727;49.934;8.656;2023-01-30T04:08:15;24.38;;;13.05;;
24559;SDS011;12727;49.934;8.656;2023-01-30T04:10:40;26.05;;;13.60;;
24559;SDS011;12727;49.934;8.656;2023-01-30T04:13:06;26.92;;;14.82;;
24559;SDS011;12727;49.934;8.656;2023-01-30T04:15:31;23.80;;;13.65;;
24559;SDS011;12727;49.934;8.656;2023-01-30T04:17:57;29.40;;;16.27;;
24559;SDS011;12727;49.934;8.656;2023-01-30T04:20:22;25.15;;;13.73;;
24559;SDS011;12727;49.934;8.656;2023-01-30T04:22:48;29.20;;;12.05;;
24559;SDS011;12727;49.934;8.656;2023-01-30T04:25:14;24.23;;;12.63;;
24559;SDS011;12727;49.934;8.656;2023-01-30T04:27:39;26.90;;;14.25;;
24559;SDS011;12727;49.934;8.656;2023-01-30T04:30:05;27.23;;;14.88;;
24559;SDS011;12727;49.934;8.656;2023-01-30T04:32:31;29.92;;;15.90;;
24559;SDS011;12727;49.934;8.656;2023-01-30T04:34:57;28.10;;;13.93;;
24559;SDS011;12727;49.934;8.656;2023-01-30T04:37:22;24.05;;;12.00;;
24559;SDS011;12727;49.934;8.656;2023-01-30T04:39:48;11.63;;;5.65;;
24559;SDS011;12727;49.934;8.656;2023-01-30T04:42:13;27.20;;;14.63;;
24559;SDS011;12727;49.934;8.656;2023-01-30T04:44:39;24.25;;;11.68;;
24559;SDS011;12727;49.934;8.656;2023-01-30T04:47:04;29.33;;;13.77;;
24559;SDS011;12727;49.934;8.656;2023-01-30T04:49:30;21.70;;;10.23;;
24559;SDS011;12727;49.934;8.656;2023-01-30T04:51:55;27.60;;;14.48;;
24559;SDS011;12727;49.934;8.656;2023-01-30T04:54:21;27.67;;;13.27;;
24559;SDS011;12727;49.934;8.656;2023-01-30T04:56:47;24.30;;;11.57;;
24559;SDS011;12727;49.934;8.656;2023-01-30T04:59:12;31.25;;;16.42;;
24559;SDS011;12727;49.934;8.656;2023-01-30T05:01:38;25.05;;;12.43;;
24559;SDS011;12727;49.934;8.656;2023-01-30T05:04:05;32.38;;;15.70;;
24559;SDS011;12727;49.934;8.656;2023-01-30T05:06:31;32.03;;;15.00;;
24559;SDS011;12727;49.934;8.656;2023-01-30T05:08:57;29.88;;;15.55;;
24559;SDS011;12727;49.934;8.656;2023-01-30T05:11:24;26.38;;;12.20;;
24559;SDS011;12727;49.934;8.656;2023-01-30T05:13:51;22.38;;;10.82;;
24559;SDS011;12727;49.934;8.656;2023-01-30T05:16:17;33.40;;;18.00;;
24559;SDS011;12727;49.934;8.656;2023-01-30T05:18:43;23.48;;;11.70;;
24559;SDS011;12727;49.934;8.656;2023-01-30T05:21:11;30.58;;;18.20;;
24559;SDS011;12727;49.934;8.656;2023-01-30T05:23:38;27.40;;;13.85;;
24559;SDS011;12727;49.934;8.656;2023-01-30T05:26:04;31.75;;;16.52;;
24559;SDS011;12727;49.934;8.656;2023-01-30T05:28:30;27.80;;;14.05;;
24559;SDS011;12727;49.934;8.656;2023-01-30T05:31:14;30.42;;;15.32;;
24559;SDS011;12727;49.934;8.656;2023-01-30T05:33:39;34.22;;;16.23;;
24559;SDS011;12727;49.934;8.656;2023-01-30T05:36:06;29.55;;;15.68;;
24559;SDS011;12727;49.934;8.656;2023-01-30T05:38:32;22.02;;;10.60;;
24559;SDS011;12727;49.934;8.656;2023-01-30T05:41:01;21.08;;;10.20;;
24559;SDS011;12727;49.934;8.656;2023-01-30T05:43:28;29.45;;;15.18;;
24559;SDS011;12727;49.934;8.656;2023-01-30T05:45:55;30.08;;;14.65;;
24559;SDS011;12727;49.934;8.656;2023-01-30T05:48:21;30.60;;;16.08;;
24559;SDS011;12727;49.934;8.656;2023-01-30T05:50:51;25.15;;;12.73;;
24559;SDS011;12727;49.934;8.656;2023-01-30T05:53:18;33.97;;;17.70;;
24559;SDS011;12727;49.934;8.656;2023-01-30T05:55:44;29.75;;;14.80;;
24559;SDS011;12727;49.934;8.656;2023-01-30T05:58:10;22.83;;;10.93;;
24559;SDS011;12727;49.934;8.656;2023-01-30T06:00:36;21.30;;;10.38;;
24559;SDS011;12727;49.934;8.656;2023-01-30T06:03:01;32.72;;;15.70;;
24559;SDS011;12727;49.934;8.656;2023-01-30T06:05:27;26.60;;;12.85;;
24559;SDS011;12727;49.934;8.656;2023-01-30T06:07:52;30.00;;;14.82;;
24559;SDS011;12727;49.934;8.656;2023-01-30T06:10:18;27.63;;;14.93;;
24559;SDS011;12727;49.934;8.656;2023-01-30T06:12:43;29.98;;;15.13;;
24559;SDS011;12727;49.934;8.656;2023-01-30T06:15:09;23.83;;;11.88;;
24559;SDS011;12727;49.934;8.656;2023-01-30T06:17:35;16.40;;;7.72;;
24559;SDS011;12727;49.934;8.656;2023-01-30T06:20:01;26.13;;;14.43;;
24559;SDS011;12727;49.934;8.656;2023-01-30T06:22:27;20.55;;;10.32;;
24559;SDS011;12727;49.934;8.656;2023-01-30T06:24:52;26.35;;;12.95;;
24559;SDS011;12727;49.934;8.656;2023-01-30T06:27:18;27.25;;;12.90;;
24559;SDS011;12727;49.934;8.656;2023-01-30T06:29:43;22.88;;;10.57;;
24559;SDS011;12727;49.934;8.656;2023-01-30T06:32:09;26.08;;;13.35;;
24559;SDS011;12727;49.934;8.656;2023-01-30T06:34:34;26.60;;;13.27;;
24559;SDS011;12727;49.934;8.656;2023-01-30T06:37:00;26.90;;;14.52;;
24559;SDS011;12727;49.934;8.656;2023-01-30T06:39:25;28.95;;;13.38;;
24559;SDS011;12727;49.934;8.656;2023-01-30T06:41:51;29.73;;;14.52;;
24559;SDS011;12727;49.934;8.656;2023-01-30T06:44:16;27.42;;;13.55;;
24559;SDS011;12727;49.934;8.656;2023-01-30T06:46:42;27.77;;;14.85;;
24559;SDS011;12727;49.934;8.656;2023-01-30T06:49:07;25.25;;;14.02;;
24559;SDS011;12727;49.934;8.656;2023-01-30T06:51:33;26.88;;;14.27;;
24559;SDS011;12727;49.934;8.656;2023-01-30T06:53:59;26.60;;;13.50;;
24559;SDS011;12727;49.934;8.656;2023-01-30T06:56:24;21.63;;;11.35;;
24559;SDS011;12727;49.934;8.656;2023-01-30T06:58:49;19.13;;;9.85;;
24559;SDS011;12727;49.934;8.656;2023-01-30T07:01:15;21.40;;;11.43;;
24559;SDS011;12727;49.934;8.656;2023-01-30T07:03:42;22.50;;;11.88;;
24559;SDS011;12727;49.934;8.656;2023-01-30T07:06:08;24.42;;;11.10;;
24559;SDS011;12727;49.934;8.656;2023-01-30T07:08:34;18.95;;;7.20;;
24559;SDS011;12727;49.934;8.656;2023-01-30T07:10:59;17.77;;;7.68;;
24559;SDS011;12727;49.934;8.656;2023-01-30T07:13:25;20.85;;;9.57;;
24559;SDS011;12727;49.934;8.656;2023-01-30T07:15:51;15.38;;;7.35;;
24559;SDS011;12727;49.934;8.656;2023-01-30T07:18:16;18.45;;;8.30;;
24559;SDS011;12727;49.934;8.656;2023-01-30T07:20:45;23.35;;;12.27;;
24559;SDS011;12727;49.934;8.656;2023-01-30T07:23:11;18.90;;;9.75;;
24559;SDS011;12727;49.934;8.656;2023-01-30T07:25:36;17.67;;;9.20;;
24559;SDS011;12727;49.934;8.656;2023-01-30T07:28:02;11.23;;;5.82;;
24559;SDS011;12727;49.934;8.656;2023-01-30T07:30:29;21.42;;;10.27;;
24559;SDS011;12727;49.934;8.656;2023-01-30T07:32:57;19.25;;;9.48;;
24559;SDS011;12727;49.934;8.656;2023-01-30T07:35:24;21.50;;;11.15;;
24559;SDS011;12727;49.934;8.656;2023-01-30T07:37:52;23.60;;;11.57;;
24559;SDS011;12727;49.934;8.656;2023-01-30T07:40:18;22.25;;;11.95;;
24559;SDS011;12727;49.934;8.656;2023-01-30T07:42:55;16.63;;;7.28;;
24559;SDS011;12727;49.934;8.656;2023-01-30T07:45:26;16.25;;;8.05;;
24559;SDS011;12727;49.934;8.656;2023-01-30T07:47:55;19.45;;;9.43;;
24559;SDS011;12727;49.934;8.656;2023-01-30T07:50:20;19.52;;;10.73;;
24559;SDS011;12727;49.934;8.656;2023-01-30T07:52:46;20.15;;;11.30;;
24559;SDS011;12727;49.934;8.656;2023-01-30T07:55:11;22.75;;;10.98;;
24559;SDS011;12727;49.934;8.656;2023-01-30T07:57:37;23.55;;;11.52;;
24559;SDS011;12727;49.934;8.656;2023-01-30T08:00:03;21.23;;;10.75;;
24559;SDS011;12727;49.934;8.656;2023-01-30T08:02:29;24.17;;;11.88;;
24559;SDS011;12727;49.934;8.656;2023-01-30T08:04:55;22.23;;;11.15;;
24559;SDS011;12727;49.934;8.656;2023-01-30T08:07:20;19.50;;;10.05;;
24559;SDS011;12727;49.934;8.656;2023-01-30T08:09:46;12.93;;;6.15;;
24559;SDS011;12727;49.934;8.656;2023-01-30T08:12:11;22.10;;;11.48;;
24559;SDS011;12727;49.934;8.656;2023-01-30T08:14:37;23.58;;;12.10;;
24559;SDS011;12727;49.934;8.656;2023-01-30T08:17:03;20.17;;;11.65;;
24559;SDS011;12727;49.934;8.656;2023-01-30T08:19:28;20.52;;;10.23;;
24559;SDS011;12727;49.934;8.656;2023-01-30T08:21:54;24.48;;;13.13;;
24559;SDS011;12727;49.934;8.656;2023-01-30T08:24:19;21.80;;;11.45;;
24559;SDS011;12727;49.934;8.656;2023-01-30T08:26:46;18.30;;;9.43;;
24559;SDS011;12727;49.934;8.656;2023-01-30T08:29:13;18.63;;;8.63;;
24559;SDS011;12727;49.934;8.656;2023-01-30T08:31:39;18.15;;;9.15;;
24559;SDS011;12727;49.934;8.656;2023-01-30T08:34:04;21.77;;;12.15;;
24559;SDS011;12727;49.934;8.656;2023-01-30T08:36:30;22.05;;;9.88;;
24559;SDS011;12727;49.934;8.656;2023-01-30T08:38:55;19.85;;;10.13;;
24559;SDS011;12727;49.934;8.656;2023-01-30T08:41:21;19.77;;;10.90;;
24559;SDS011;12727;49.934;8.656;2023-01-30T08:43:46;20.90;;;11.30;;
24559;SDS011;12727;49.934;8.656;2023-01-30T08:46:12;19.77;;;10.73;;
24559;SDS011;12727;49.934;8.656;2023-01-30T08:48:38;18.65;;;8.40;;
24559;SDS011;12727;49.934;8.656;2023-01-30T08:51:05;20.73;;;10.60;;
24559;SDS011;12727;49.934;8.656;2023-01-30T08:53:31;19.52;;;10.88;;
24559;SDS011;12727;49.934;8.656;2023-01-30T08:55:57;19.83;;;11.52;;
24559;SDS011;12727;49.934;8.656;2023-01-30T08:58:23;21.35;;;10.15;;
24559;SDS011;12727;49.934;8.656;2023-01-30T09:00:48;20.00;;;11.43;;
24559;SDS011;12727;49.934;8.656;2023-01-30T09:03:14;22.17;;;11.57;;
24559;SDS011;12727;49.934;8.656;2023-01-30T09:05:40;17.23;;;8.07;;
24559;SDS011;12727;49.934;8.656;2023-01-30T09:08:06;22.50;;;11.77;;
24559;SDS011;12727;49.934;8.656;2023-01-30T09:10:31;22.38;;;12.25;;
24559;SDS011;12727;49.934;8.656;2023-01-30T09:12:57;20.23;;;11.27;;
24559;SDS011;12727;49.934;8.656;2023-01-30T09:15:22;18.33;;;9.68;;
24559;SDS011;12727;49.934;8.656;2023-01-30T09:17:48;20.65;;;12.00;;
24559;SDS011;12727;49.934;8.656;2023-01-30T09:20:15;21.17;;;11.48;;
24559;SDS011;12727;49.934;8.656;2023-01-30T09:22:42;17.67;;;9.60;;
24559;SDS011;12727;49.934;8.656;2023-01-30T09:25:08;18.42;;;10.80;;
24559;SDS011;12727;49.934;8.656;2023-01-30T09:27:34;20.67;;;11.10;;
24559;SDS011;12727;49.934;8.656;2023-01-30T09:29:59;22.15;;;11.27;;
24559;SDS011;12727;49.934;8.656;2023-01-30T09:32:25;19.88;;;11.23;;
24559;SDS011;12727;49.934;8.656;2023-01-30T09:34:50;20.48;;;9.45;;
24559;SDS011;12727;49.934;8.656;2023-01-30T09:37:16;20.02;;;11.55;;
24559;SDS011;12727;49.934;8.656;2023-01-30T09:39:41;16.20;;;8.05;;
24559;SDS011;12727;49.934;8.656;2023-01-30T09:52:55;15.77;;;8.85;;
24559;SDS011;12727;49.934;8.656;2023-01-30T09:55:41;13.90;;;6.47;;
24559;SDS011;12727;49.934;8.656;2023-01-30T09:58:11;14.07;;;7.03;;
24559;SDS011;12727;49.934;8.656;2023-01-30T10:00:41;13.10;;;8.05;;
24559;SDS011;12727;49.934;8.656;2023-01-30T10:05:39;12.98;;;7.30;;
24559;SDS011;12727;49.934;8.656;2023-01-30T10:19:56;8.50;;;4.53;;
24559;SDS011;12727;49.934;8.656;2023-01-30T10:22:32;10.73;;;5.40;;
24559;SDS011;12727;49.934;8.656;2023-01-30T10:27:56;11.80;;;6.82;;
24559;SDS011;12727;49.934;8.656;2023-01-30T10:30:43;9.55;;;5.40;;
24559;SDS011;12727;49.934;8.656;2023-01-30T10:33:14;10.10;;;6.65;;
24559;SDS011;12727;49.934;8.656;2023-01-30T10:35:54;10.82;;;6.47;;
24559;SDS011;12727;49.934;8.656;2023-01-30T10:38:36;10.07;;;6.28;;
24559;SDS011;12727;49.934;8.656;2023-01-30T10:41:13;10.63;;;6.05;;
24559;SDS011;12727;49.934;8.656;2023-01-30T10:46:47;8.55;;;5.28;;
24559;SDS011;12727;49.934;8.656;2023-01-30T10:49:20;8.15;;;5.28;;
24559;SDS011;12727;49.934;8.656;2023-01-30T10:57:50;8.50;;;5.22;;
24559;SDS011;12727;49.934;8.656;2023-01-30T11:03:07;7.30;;;4.68;;
24559;SDS011;12727;49.934;8.656;2023-01-30T11:05:37;6.57;;;4.13;;
24559;SDS011;12727;49.934;8.656;2023-01-30T11:08:25;6.03;;;4.18;;
24559;SDS011;12727;49.934;8.656;2023-01-30T11:10:53;5.53;;;4.20;;
24559;SDS011;12727;49.934;8.656;2023-01-30T11:13:23;7.53;;;4.30;;
24559;SDS011;12727;49.934;8.656;2023-01-30T11:15:55;5.93;;;3.50;;
24559;SDS011;12727;49.934;8.656;2023-01-30T11:18:23;8.18;;;4.57;;
24559;SDS011;12727;49.934;8.656;2023-01-30T11:20:54;5.97;;;3.88;;
24559;SDS011;12727;49.934;8.656;2023-01-30T11:23:31;5.55;;;3.67;;
24559;SDS011;12727;49.934;8.656;2023-01-30T11:25:59;5.50;;;3.75;;
24559;SDS011;12727;49.934;8.656;2023-01-30T11:28:27;4.13;;;2.70;;
24559;SDS011;12727;49.934;8.656;2023-01-30T11:31:00;5.38;;;2.38;;
24559;SDS011;12727;49.934;8.656;2023-01-30T11:33:35;2.53;;;1.80;;
24559;SDS011;12727;49.934;8.656;2023-01-30T11:36:06;3.05;;;2.17;;
24559;SDS011;12727;49.934;8.656;2023-01-30T11:39:31;3.97;;;2.40;;
24559;SDS011;12727;49.934;8.656;2023-01-30T11:41:41;3.70;;;2.83;;
24559;SDS011;12727;49.934;8.656;2023-01-30T11:44:27;3.53;;;2.40;;
24559;SDS011;12727;49.934;8.656;2023-01-30T11:46:57;3.65;;;1.95;;
24559;SDS011;12727;49.934;8.656;2023-01-30T11:49:25;3.50;;;1.90;;
24559;SDS011;12727;49.934;8.656;2023-01-30T11:51:57;4.47;;;2.55;;
24559;SDS011;12727;49.934;8.656;2023-01-30T11:54:42;6.30;;;3.63;;
24559;SDS011;12727;49.934;8.656;2023-01-30T11:57:12;4.70;;;2.47;;
24559;SDS011;12727;49.934;8.656;2023-01-30T12:04:45;3.83;;;2.00;;
24559;SDS011;12727;49.934;8.656;2023-01-30T12:07:19;4.55;;;2.05;;
24559;SDS011;12727;49.934;8.656;2023-01-30T12:09:56;2.30;;;1.38;;
24559;SDS011;12727;49.934;8.656;2023-01-30T12:12:27;4.00;;;1.80;;
24559;SDS011;12727;49.934;8.656;2023-01-30T12:15:00;2.00;;;1.15;;
24559;SDS011;12727;49.934;8.656;2023-01-30T12:17:47;3.10;;;1.77;;
24559;SDS011;12727;49.934;8.656;2023-01-30T12:20:24;2.90;;;2.03;;
24559;SDS011;12727;49.934;8.656;2023-01-30T12:25:39;2.67;;;1.40;;
24559;SDS011;12727;49.934;8.656;2023-01-30T12:28:20;3.97;;;2.63;;
24559;SDS011;12727;49.934;8.656;2023-01-30T12:30:55;3.00;;;1.80;;
24559;SDS011;12727;49.934;8.656;2023-01-30T12:33:27;2.50;;;1.92;;
24559;SDS011;12727;49.934;8.656;2023-01-30T12:36:09;4.72;;;2.90;;
24559;SDS011;12727;49.934;8.656;2023-01-30T12:39:04;3.20;;;1.98;;
24559;SDS011;12727;49.934;8.656;2023-01-30T12:47:20;3.20;;;1.75;;
24559;SDS011;12727;49.934;8.656;2023-01-30T12:55:17;5.13;;;2.55;;
24559;SDS011;12727;49.934;8.656;2023-01-30T12:57:56;3.20;;;2.03;;
24559;SDS011;12727;49.934;8.656;2023-01-30T13:11:30;3.15;;;2.33;;
24559;SDS011;12727;49.934;8.656;2023-01-30T13:16:52;3.13;;;2.05;;
24559;SDS011;12727;49.934;8.656;2023-01-30T13:19:31;3.80;;;2.20;;
24559;SDS011;12727;49.934;8.656;2023-01-30T13:22:12;2.95;;;2.15;;
24559;SDS011;12727;49.934;8.656;2023-01-30T13:27:29;3.33;;;2.20;;
24559;SDS011;12727;49.934;8.656;2023-01-30T13:30:00;4.15;;;2.50;;
24559;SDS011;12727;49.934;8.656;2023-01-30T13:35:01;4.78;;;2.55;;
24559;SDS011;12727;49.934;8.656;2023-01-30T13:37:30;3.78;;;2.10;;
24559;SDS011;12727;49.934;8.656;2023-01-30T13:45:41;3.17;;;1.70;;
24559;SDS011;12727;49.934;8.656;2023-01-30T13:48:28;6.15;;;1.50;;
24559;SDS011;12727;49.934;8.656;2023-01-30T13:53:47;4.55;;;2.97;;
24559;SDS011;12727;49.934;8.656;2023-01-30T13:56:43;3.97;;;2.47;;
24559;SDS011;12727;49.934;8.656;2023-01-30T13:59:20;4.15;;;2.50;;
24559;SDS011;12727;49.934;8.656;2023-01-30T14:02:07;4.30;;;2.42;;
24559;SDS011;12727;49.934;8.656;2023-01-30T14:07:17;5.18;;;3.38;;
24559;SDS011;12727;49.934;8.656;2023-01-30T14:09:49;6.70;;;3.50;;
24559;SDS011;12727;49.934;8.656;2023-01-30T14:12:27;4.90;;;3.40;;
24559;SDS011;12727;49.934;8.656;2023-01-30T14:15:01;5.57;;;3.17;;
24559;SDS011;12727;49.934;8.656;2023-01-30T14:17:27;4.43;;;2.30;;
24559;SDS011;12727;49.934;8.656;2023-01-30T14:27:49;4.88;;;3.30;;
24559;SDS011;12727;49.934;8.656;2023-01-30T14:38:23;7.38;;;3.63;;
24559;SDS011;12727;49.934;8.656;2023-01-30T14:56:45;8.95;;;5.95;;
24559;SDS011;12727;49.934;8.656;2023-01-30T14:59:28;8.35;;;5.18;;
24559;SDS011;12727;49.934;8.656;2023-01-30T15:04:49;9.43;;;5.50;;
24559;SDS011;12727;49.934;8.656;2023-01-30T15:07:22;8.40;;;5.15;;
24559;SDS011;12727;49.934;8.656;2023-01-30T15:09:54;6.90;;;4.05;;
24559;SDS011;12727;49.934;8.656;2023-01-30T15:15:01;9.15;;;3.40;;
24559;SDS011;12727;49.934;8.656;2023-01-30T15:20:37;5.55;;;2.78;;
24559;SDS011;12727;49.934;8.656;2023-01-30T15:23:42;6.38;;;2.30;;
24559;SDS011;12727;49.934;8.656;2023-01-30T15:26:16;6.00;;;2.10;;
24559;SDS011;12727;49.934;8.656;2023-01-30T15:28:55;7.00;;;2.30;;
24559;SDS011;12727;49.934;8.656;2023-01-30T15:31:32;10.07;;;2.03;;
24559;SDS011;12727;49.934;8.656;2023-01-30T15:33:58;6.55;;;1.88;;
24559;SDS011;12727;49.934;8.656;2023-01-30T15:36:29;5.40;;;1.95;;
24559;SDS011;12727;49.934;8.656;2023-01-30T15:39:00;6.72;;;2.10;;
24559;SDS011;12727;49.934;8.656;2023-01-30T15:41:31;7.20;;;2.13;;
24559;SDS011;12727;49.934;8.656;2023-01-30T15:49:56;7.93;;;1.83;;
24559;SDS011;12727;49.934;8.656;2023-01-30T15:52:39;5.10;;;2.15;;
24559;SDS011;12727;49.934;8.656;2023-01-30T15:55:14;6.85;;;2.30;;
24559;SDS011;12727;49.934;8.656;2023-01-30T15:57:44;4.50;;;2.13;;
24559;SDS011;12727;49.934;8.656;2023-01-30T16:00:18;5.88;;;2.17;;
24559;SDS011;12727;49.934;8.656;2023-01-30T16:02:54;10.98;;;2.30;;
24559;SDS011;12727;49.934;8.656;2023-01-30T16:05:22;8.52;;;2.40;;
24559;SDS011;12727;49.934;8.656;2023-01-30T16:07:50;7.93;;;2.22;;
24559;SDS011;12727;49.934;8.656;2023-01-30T16:10:22;5.63;;;2.05;;
24559;SDS011;12727;49.934;8.656;2023-01-30T16:12:56;5.43;;;1.90;;
24559;SDS011;12727;49.934;8.656;2023-01-30T16:15:33;7.38;;;2.60;;
24559;SDS011;12727;49.934;8.656;2023-01-30T16:20:57;8.10;;;2.08;;
24559;SDS011;12727;49.934;8.656;2023-01-30T16:23:28;7.38;;;2.03;;
24559;SDS011;12727;49.934;8.656;2023-01-30T16:25:57;7.88;;;2.40;;
24559;SDS011;12727;49.934;8.656;2023-01-30T16:28:25;12.38;;;2.75;;
24559;SDS011;12727;49.934;8.656;2023-01-30T16:31:06;6.70;;;2.30;;
24559;SDS011;12727;49.934;8.656;2023-01-30T16:33:33;8.60;;;2.33;;
24559;SDS011;12727;49.934;8.656;2023-01-30T16:36:03;10.15;;;3.20;;
24559;SDS011;12727;49.934;8.656;2023-01-30T16:41:24;9.13;;;2.20;;
24559;SDS011;12727;49.934;8.656;2023-01-30T16:46:47;9.55;;;3.65;;
24559;SDS011;12727;49.934;8.656;2023-01-30T16:52:01;9.23;;;2.97;;
24559;SDS011;12727;49.934;8.656;2023-01-30T16:54:29;9.18;;;2.78;;
24559;SDS011;12727;49.934;8.656;2023-01-30T16:57:09;12.80;;;3.70;;
24559;SDS011;12727;49.934;8.656;2023-01-30T17:00:25;9.68;;;3.47;;
24559;SDS011;12727;49.934;8.656;2023-01-30T17:02:59;10.05;;;3.50;;
24559;SDS011;12727;49.934;8.656;2023-01-30T17:05:36;12.57;;;3.55;;
24559;SDS011;12727;49.934;8.656;2023-01-30T17:08:04;11.95;;;6.15;;
24559;SDS011;12727;49.934;8.656;2023-01-30T17:10:51;8.80;;;4.43;;
24559;SDS011;12727;49.934;8.656;2023-01-30T17:13:34;10.93;;;5.22;;
24559;SDS011;12727;49.934;8.656;2023-01-30T17:18:52;11.68;;;5.70;;
24559;SDS011;12727;49.934;8.656;2023-01-30T17:21:20;8.43;;;4.63;;
24559;SDS011;12727;49.934;8.656;2023-01-30T17:23:48;6.82;;;3.95;;
24559;SDS011;12727;49.934;8.656;2023-01-30T17:26:21;13.30;;;4.20;;
24559;SDS011;12727;49.934;8.656;2023-01-30T17:28:46;8.13;;;3.38;;
24559;SDS011;12727;49.934;8.656;2023-01-30T17:31:12;6.95;;;3.10;;
24559;SDS011;12727;49.934;8.656;2023-01-30T17:33:39;8.68;;;4.13;;
24559;SDS011;12727;49.934;8.656;2023-01-30T17:36:09;7.18;;;2.85;;
24559;SDS011;12727;49.934;8.656;2023-01-30T17:38:47;8.63;;;3.53;;
24559;SDS011;12727;49.934;8.656;2023-01-30T17:41:31;7.43;;;3.10;;
24559;SDS011;12727;49.934;8.656;2023-01-30T17:44:00;8.43;;;3.03;;
24559;SDS011;12727;49.934;8.656;2023-01-30T17:46:30;10.00;;;3.40;;
24559;SDS011;12727;49.934;8.656;2023-01-30T17:48:59;12.15;;;3.88;;
24559;SDS011;12727;49.934;8.656;2023-01-30T17:51:24;11.73;;;3.22;;
24559;SDS011;12727;49.934;8.656;2023-01-30T17:53:50;12.20;;;3.53;;